Hlavní strana
METAR-TAF:

METAR-TAF

Letiště :

Čeboksary, Rusko

zeměpisná šířka: 56-05-24N, zeměpisná délka: 047-20-50E, výška: 171 m

Aktuální stav počasí

Zpráva byla vytvořena před 16 minutami, v 01:00 UTC
Západní vítr 6 kt
Teplota 15°C
Vlhkost vzduchu 94%
Tlak 1004 hPa
Viditelnost 10 km a více
Oblačno až skoro zataženo ve výšce 3000 ft, Cumulonimbus.
slabé dešťové přeháňky

METAR: UWKS 220100Z 28003MPS 9999 -SHRA BKN030CB 15/14 Q1004 R24/010060 TEMPO 25008G14MPS RMK QFE739

Čas: 04:16 (01:16 UTC)

Předpověď počasí

Zpráva byla vytvořena před 2 hodinami a 25 minutami, v 22:51 UTC
Předpověď platná od 22 v 00 UTC do 22 v 09 UTC
Západojihozápadní vítr 10 kt s nárazy do 21 kt
Viditelnost: 4000 m
Oblačno až skoro zataženo ve výšce 1100 ft
Oblačno až skoro zataženo ve výšce 1500 ft, Cumulonimbus.
slabé dešťové přeháňky, kouřmo
Dočasný
od 22 v 04 UTC do 22 v 09 UTC
Západní vítr 12 kt s nárazy do 27 kt

TAF: UWKS 212251Z 2200/2209 24005G11MPS 4000 -SHRA BR BKN011 BKN015CB TEMPO 2204/2209 28006G14MPS

Stav a předpovědi počasí z více než 4 000 letišť (zprávy METAR a TAF).

Červené a žluté tečky na mapě představují dostupné meteorologické stanice.

Když kurzor umístíte na tečku, zobrazí se název stanice.

Pak kliknutím zobrazíte stav a předpověď počasí.

Chcete-li změnit mapu, kliknutím na zelené tlačítko se znaménkem +mapu přiblížíte, kliknutím na zelené tlačítko se znaménkem – mapu oddálíte a kliknutím na zelené šipky přejdete na sousední mapy.


METAR-TAF: